createdAt,value
2017-11-05T00:01:29.420Z,91.50
2017-11-05T00:03:56.963Z,91.40
2017-11-05T00:06:24.436Z,91.40
2017-11-05T00:08:51.918Z,91.80
2017-11-05T00:11:20.131Z,91.80
2017-11-05T00:13:47.703Z,91.80
2017-11-05T00:16:15.209Z,91.90
2017-11-05T00:18:43.429Z,92.30
2017-11-05T00:21:10.888Z,92.30
2017-11-05T00:23:38.329Z,91.60
2017-11-05T00:26:05.762Z,91.80
2017-11-05T00:28:33.360Z,92.00
2017-11-05T00:31:00.985Z,91.60
2017-11-05T00:33:28.445Z,91.90
2017-11-05T00:35:55.885Z,92.00
2017-11-05T00:38:24.138Z,92.50
2017-11-05T00:40:51.581Z,92.50
2017-11-05T00:43:19.009Z,92.40
2017-11-05T00:45:46.471Z,92.20
2017-11-05T00:48:13.919Z,92.50
2017-11-05T00:50:41.345Z,91.70
2017-11-05T00:53:09.627Z,92.60
2017-11-05T00:55:37.832Z,92.20
2017-11-05T00:58:05.334Z,92.20
2017-11-05T01:00:32.849Z,92.30
2017-11-05T01:03:00.368Z,92.90
2017-11-05T01:05:27.809Z,93.00
2017-11-05T01:07:55.380Z,92.90
2017-11-05T01:10:24.120Z,93.70
2017-11-05T01:12:51.575Z,94.40
2017-11-05T01:15:19.397Z,94.80
2017-11-05T01:17:47.592Z,95.10
2017-11-05T01:20:15.043Z,95.10
2017-11-05T01:22:43.251Z,95.60
2017-11-05T01:25:10.711Z,95.60
2017-11-05T01:27:38.187Z,95.50
2017-11-05T01:30:05.631Z,95.50
2017-11-05T01:32:33.087Z,95.00
2017-11-05T01:35:00.544Z,95.70
2017-11-05T01:37:27.999Z,95.30
2017-11-05T01:39:55.438Z,95.10
2017-11-05T01:42:22.920Z,95.00
2017-11-05T01:44:50.365Z,95.30
2017-11-05T01:47:17.834Z,95.60
2017-11-05T01:49:45.351Z,95.50
2017-11-05T01:52:13.557Z,95.50
2017-11-05T01:54:41.122Z,95.40
2017-11-05T01:57:08.620Z,95.20
2017-11-05T01:59:36.112Z,95.20
2017-11-05T02:02:03.591Z,95.10
2017-11-05T02:04:31.050Z,95.10
2017-11-05T02:06:58.494Z,95.10
2017-11-05T02:09:25.982Z,95.40
2017-11-05T02:11:53.404Z,95.70
2017-11-05T02:14:21.060Z,96.10
2017-11-05T02:16:49.764Z,96.30
2017-11-05T02:19:17.238Z,96.10
2017-11-05T02:21:44.713Z,96.20
2017-11-05T02:24:12.160Z,95.90
2017-11-05T02:26:39.595Z,95.80
2017-11-05T02:29:07.073Z,96.20
2017-11-05T02:31:34.514Z,95.90
2017-11-05T02:34:01.989Z,96.10
2017-11-05T02:36:29.447Z,95.50
2017-11-05T02:38:56.887Z,96.10
2017-11-05T02:41:24.365Z,95.80
2017-11-05T02:43:51.814Z,95.90
2017-11-05T02:46:19.260Z,95.70
2017-11-05T02:48:46.719Z,95.10
2017-11-05T02:51:14.177Z,94.80
2017-11-05T02:53:41.639Z,94.40
2017-11-05T02:56:09.083Z,94.90
2017-11-05T02:58:37.044Z,94.50
2017-11-05T03:01:04.509Z,94.50
2017-11-05T03:03:31.964Z,94.80
2017-11-05T03:05:59.396Z,94.80
2017-11-05T03:08:26.832Z,94.50
2017-11-05T03:10:54.250Z,95.20
2017-11-05T03:13:21.736Z,95.10
2017-11-05T03:15:49.180Z,94.70
2017-11-05T03:18:16.734Z,94.90
2017-11-05T03:20:44.189Z,94.70
2017-11-05T03:23:11.645Z,94.60
2017-11-05T03:25:39.135Z,94.50
2017-11-05T03:28:06.584Z,94.60
2017-11-05T03:30:34.979Z,94.70
2017-11-05T03:33:02.421Z,94.40
2017-11-05T03:35:29.910Z,94.50
2017-11-05T03:37:58.095Z,94.40
2017-11-05T03:40:26.338Z,94.10
2017-11-05T03:42:54.103Z,94.10
2017-11-05T03:45:21.584Z,94.10
2017-11-05T03:47:49.049Z,94.00
2017-11-05T03:50:16.489Z,94.00
2017-11-05T03:52:43.944Z,93.90
2017-11-05T03:55:11.426Z,94.00
2017-11-05T03:57:38.865Z,94.30
2017-11-05T04:00:06.309Z,94.00
2017-11-05T04:02:33.781Z,93.80
2017-11-05T04:05:01.230Z,93.70
2017-11-05T04:07:28.683Z,94.10
2017-11-05T04:09:56.158Z,94.30
2017-11-05T04:12:23.616Z,94.50
2017-11-05T04:14:51.073Z,94.70
2017-11-05T04:17:19.265Z,94.90
2017-11-05T04:19:47.496Z,94.60
2017-11-05T04:22:15.015Z,94.60
2017-11-05T04:24:43.233Z,94.80
2017-11-05T04:27:10.926Z,94.80
2017-11-05T04:29:39.147Z,94.40
2017-11-05T04:32:07.289Z,94.40
2017-11-05T04:34:35.497Z,94.70
2017-11-05T04:37:03.023Z,94.70
2017-11-05T04:39:31.214Z,95.10
2017-11-05T04:41:58.678Z,94.80
2017-11-05T04:44:26.114Z,94.50
2017-11-05T04:46:53.600Z,94.60
2017-11-05T04:49:21.033Z,94.50
2017-11-05T04:51:55.525Z,94.40
2017-11-05T04:54:23.190Z,94.30
2017-11-05T04:56:50.653Z,94.20
2017-11-05T05:01:59.221Z,94.40
2017-11-05T05:04:26.677Z,94.70
2017-11-05T05:06:54.138Z,94.90
2017-11-05T05:09:21.617Z,94.90
2017-11-05T05:11:49.053Z,95.00
2017-11-05T05:14:16.512Z,94.90
2017-11-05T05:16:43.993Z,94.60
2017-11-05T05:19:11.450Z,94.70
2017-11-05T05:21:38.887Z,94.80
2017-11-05T05:24:06.345Z,95.00
2017-11-05T05:26:33.813Z,94.60
2017-11-05T05:29:01.269Z,94.60
2017-11-05T05:31:28.728Z,95.40
2017-11-05T05:33:56.184Z,95.00
2017-11-05T05:36:23.641Z,95.10
2017-11-05T05:38:51.123Z,95.10
2017-11-05T05:41:18.559Z,95.10
2017-11-05T05:43:46.016Z,95.10
2017-11-05T05:46:13.477Z,95.30
2017-11-05T05:48:40.954Z,95.80
2017-11-05T05:51:08.430Z,95.70
2017-11-05T05:53:35.876Z,95.50
2017-11-05T05:56:03.321Z,95.30
2017-11-05T05:58:30.762Z,95.40
2017-11-05T06:00:58.226Z,95.60
2017-11-05T06:03:25.684Z,96.00
2017-11-05T06:05:53.156Z,96.10
2017-11-05T06:08:21.361Z,96.10
2017-11-05T06:10:48.814Z,96.10
2017-11-05T06:13:16.251Z,96.30
2017-11-05T06:15:43.708Z,96.90
2017-11-05T06:18:11.190Z,97.00
2017-11-05T06:20:38.630Z,96.80
2017-11-05T06:23:06.087Z,96.90
2017-11-05T06:25:33.545Z,96.60
2017-11-05T06:28:01.028Z,96.00
2017-11-05T06:30:28.474Z,96.40
2017-11-05T06:32:55.926Z,96.40
2017-11-05T06:35:24.198Z,97.20
2017-11-05T06:37:51.661Z,96.90
2017-11-05T06:40:19.145Z,97.50
2017-11-05T06:42:46.597Z,97.70
2017-11-05T06:45:14.044Z,97.50
2017-11-05T06:47:41.468Z,96.90
2017-11-05T06:50:08.938Z,97.60
2017-11-05T06:52:36.398Z,97.50
2017-11-05T06:55:03.876Z,97.30
2017-11-05T06:57:31.339Z,97.10
2017-11-05T06:59:58.810Z,96.90
2017-11-05T07:02:26.997Z,96.70
2017-11-05T07:04:54.445Z,96.70
2017-11-05T07:07:23.615Z,96.80
2017-11-05T07:09:51.070Z,96.80
2017-11-05T07:12:18.549Z,97.10
2017-11-05T07:14:46.010Z,97.10
2017-11-05T07:17:14.209Z,96.90
2017-11-05T07:19:41.636Z,97.30
2017-11-05T07:22:09.848Z,96.90
2017-11-05T07:24:37.284Z,96.90
2017-11-05T07:27:05.530Z,96.90
2017-11-05T07:29:32.992Z,96.80
2017-11-05T07:32:00.458Z,96.90
2017-11-05T07:34:27.909Z,97.00
2017-11-05T07:36:55.367Z,96.90
2017-11-05T07:39:24.524Z,96.90
2017-11-05T07:41:52.083Z,96.90
2017-11-05T07:44:19.515Z,96.90
2017-11-05T07:46:46.975Z,96.80
2017-11-05T07:49:14.413Z,96.50
2017-11-05T07:51:42.606Z,96.70
2017-11-05T07:54:10.097Z,96.70
2017-11-05T07:56:37.574Z,96.80
2017-11-05T07:59:05.016Z,96.20
2017-11-05T08:01:32.465Z,96.80
2017-11-05T08:03:59.921Z,96.00
2017-11-05T08:06:27.385Z,96.10
2017-11-05T08:08:54.846Z,95.70
2017-11-05T08:11:22.306Z,95.60
2017-11-05T08:13:49.745Z,95.00
2017-11-05T08:16:17.232Z,95.30
2017-11-05T08:18:44.661Z,94.90
2017-11-05T08:21:12.114Z,95.70
2017-11-05T08:23:40.039Z,95.40
2017-11-05T08:26:07.773Z,95.10
2017-11-05T08:28:35.240Z,94.80
2017-11-05T08:31:02.664Z,95.40
2017-11-05T08:33:30.125Z,94.90
2017-11-05T08:35:57.590Z,95.40
2017-11-05T08:38:25.041Z,94.70
2017-11-05T08:40:52.518Z,95.30
2017-11-05T08:43:19.960Z,95.40
2017-11-05T08:45:47.429Z,95.90
2017-11-05T08:48:14.881Z,95.40
2017-11-05T08:50:42.356Z,95.40
2017-11-05T08:53:09.807Z,95.00
2017-11-05T08:55:37.281Z,95.20
2017-11-05T08:58:04.726Z,95.10
2017-11-05T09:00:32.180Z,95.20
2017-11-05T09:02:59.654Z,95.10
2017-11-05T09:05:27.098Z,95.00
2017-11-05T09:07:54.563Z,95.20
2017-11-05T09:10:23.215Z,95.10
2017-11-05T09:12:50.642Z,94.60
2017-11-05T09:15:18.065Z,94.90
2017-11-05T09:17:45.544Z,94.60
2017-11-05T09:20:13.008Z,95.30
2017-11-05T09:22:40.565Z,94.90
2017-11-05T09:25:08.125Z,94.90
2017-11-05T09:27:35.580Z,95.00
2017-11-05T09:30:03.124Z,94.70
2017-11-05T09:32:30.599Z,93.70
2017-11-05T09:34:58.025Z,94.60
2017-11-05T09:37:25.481Z,93.20
2017-11-05T09:39:52.964Z,94.40
2017-11-05T09:42:20.391Z,94.80
2017-11-05T09:44:47.930Z,93.70
2017-11-05T09:47:15.354Z,94.50
2017-11-05T09:49:43.595Z,93.90
2017-11-05T09:52:11.053Z,93.90
2017-11-05T09:54:38.509Z,94.10
2017-11-05T09:57:05.983Z,93.20
2017-11-05T09:59:33.457Z,93.20
2017-11-05T10:02:01.657Z,92.60
2017-11-05T10:04:29.090Z,92.60
2017-11-05T10:06:57.287Z,92.30
2017-11-05T10:09:24.750Z,92.20
2017-11-05T10:11:52.929Z,91.70
2017-11-05T10:14:20.381Z,91.70
2017-11-05T10:16:48.572Z,91.70
2017-11-05T10:19:16.036Z,91.70
2017-11-05T10:21:43.469Z,92.10
2017-11-05T10:24:11.021Z,92.10
2017-11-05T10:26:38.499Z,91.40
2017-11-05T10:29:05.957Z,91.40
2017-11-05T10:31:33.398Z,91.00
2017-11-05T10:34:00.876Z,91.50
2017-11-05T10:36:28.382Z,92.20
2017-11-05T10:38:56.003Z,91.20
2017-11-05T10:41:23.776Z,90.00
2017-11-05T10:43:51.230Z,89.60
2017-11-05T10:46:18.645Z,90.00
2017-11-05T10:48:46.857Z,90.20
2017-11-05T10:51:14.289Z,90.20
2017-11-05T10:53:41.754Z,90.00
2017-11-05T10:56:09.210Z,90.20
2017-11-05T10:58:36.717Z,90.50
2017-11-05T11:01:05.294Z,90.60
2017-11-05T11:03:32.743Z,90.20
2017-11-05T11:06:00.198Z,90.50
2017-11-05T11:08:27.677Z,90.10
2017-11-05T11:10:55.097Z,86.60
2017-11-05T11:13:22.577Z,89.60
2017-11-05T11:15:50.053Z,87.50
2017-11-05T11:18:17.586Z,88.80
2017-11-05T11:20:45.129Z,91.10
2017-11-05T11:23:12.609Z,90.40
2017-11-05T11:25:40.041Z,89.40
2017-11-05T11:28:07.506Z,90.20
2017-11-05T11:30:34.980Z,91.20
2017-11-05T11:33:02.483Z,91.10
2017-11-05T11:35:29.930Z,91.00
2017-11-05T11:37:57.421Z,90.00
2017-11-05T11:40:24.880Z,90.70
2017-11-05T11:42:52.338Z,90.80
2017-11-05T11:45:19.796Z,91.60
2017-11-05T11:47:47.275Z,91.60
2017-11-05T11:50:14.712Z,89.80
2017-11-05T11:52:42.148Z,91.00
2017-11-05T11:55:09.626Z,91.20
2017-11-05T11:57:37.837Z,91.10
2017-11-05T12:00:05.278Z,91.10
2017-11-05T12:02:32.757Z,91.30
2017-11-05T12:05:00.197Z,90.60
2017-11-05T12:07:27.673Z,88.10
2017-11-05T12:09:55.114Z,87.70
2017-11-05T12:12:22.589Z,90.80
2017-11-05T12:14:50.042Z,87.40
2017-11-05T12:17:17.477Z,90.30
2017-11-05T12:19:44.971Z,87.40
2017-11-05T12:22:12.423Z,88.10
2017-11-05T12:24:39.865Z,88.50
2017-11-05T12:27:07.341Z,84.80
2017-11-05T12:29:34.791Z,82.80
2017-11-05T12:32:02.234Z,84.80
2017-11-05T12:34:29.708Z,83.50
2017-11-05T12:36:57.162Z,81.70
2017-11-05T12:39:24.650Z,83.90
2017-11-05T12:41:52.090Z,81.50
2017-11-05T12:44:19.546Z,85.00
2017-11-05T12:46:46.994Z,83.60
2017-11-05T12:49:14.450Z,81.90
2017-11-05T12:51:41.916Z,79.20
2017-11-05T12:54:09.386Z,80.80
2017-11-05T12:56:36.825Z,79.40
2017-11-05T12:59:04.327Z,77.20
2017-11-05T13:01:31.778Z,76.40
2017-11-05T13:03:59.232Z,77.10
2017-11-05T13:06:28.225Z,77.50
2017-11-05T13:08:55.666Z,77.50
2017-11-05T13:11:24.053Z,74.90
2017-11-05T13:13:51.501Z,77.70
2017-11-05T13:16:18.957Z,80.00
2017-11-05T13:18:46.441Z,78.80
2017-11-05T13:21:13.911Z,81.20
2017-11-05T13:23:42.136Z,78.10
2017-11-05T13:26:09.597Z,78.10
2017-11-05T13:28:37.509Z,78.90
2017-11-05T13:31:05.785Z,75.60
2017-11-05T13:33:33.972Z,75.70
2017-11-05T13:36:01.423Z,75.70
2017-11-05T13:38:29.651Z,78.20
2017-11-05T13:40:57.124Z,78.10
2017-11-05T13:43:24.590Z,78.60
2017-11-05T13:45:52.058Z,79.10
2017-11-05T13:48:20.338Z,78.20
2017-11-05T13:50:48.584Z,73.80
2017-11-05T13:53:16.049Z,73.70
2017-11-05T13:55:43.502Z,73.00
2017-11-05T13:58:10.973Z,72.00
2017-11-05T14:00:38.442Z,75.20
2017-11-05T14:03:06.632Z,77.60
2017-11-05T14:05:34.112Z,77.50
2017-11-05T14:08:01.576Z,76.80
2017-11-05T14:10:29.036Z,70.50
2017-11-05T14:12:56.469Z,74.10
2017-11-05T14:15:24.209Z,73.50
2017-11-05T14:17:51.662Z,73.10
2017-11-05T14:20:19.197Z,72.20
2017-11-05T14:22:46.628Z,73.90
2017-11-05T14:25:14.072Z,74.40
2017-11-05T14:27:41.538Z,69.60
2017-11-05T14:30:08.986Z,70.50
2017-11-05T14:32:36.561Z,70.20
2017-11-05T14:35:04.002Z,72.00
2017-11-05T14:37:31.475Z,71.00
2017-11-05T14:39:59.934Z,74.10
2017-11-05T14:42:28.359Z,72.60
2017-11-05T14:44:55.814Z,72.60
2017-11-05T14:47:24.199Z,74.50
2017-11-05T14:49:51.670Z,72.20
2017-11-05T14:52:22.668Z,72.60
2017-11-05T14:54:50.129Z,73.30
2017-11-05T14:57:17.590Z,76.70
2017-11-05T14:59:45.048Z,75.00
2017-11-05T15:02:12.603Z,75.10
2017-11-05T15:04:40.051Z,78.20
2017-11-05T15:07:07.507Z,78.90
2017-11-05T15:09:35.114Z,79.30
2017-11-05T15:12:02.562Z,78.10
2017-11-05T15:14:30.013Z,80.50
2017-11-05T15:16:57.476Z,78.60
2017-11-05T15:19:24.931Z,79.50
2017-11-05T15:21:52.389Z,78.60
2017-11-05T15:24:19.845Z,82.50
2017-11-05T15:26:48.042Z,82.80
2017-11-05T15:29:15.497Z,82.50
2017-11-05T15:31:42.950Z,83.00
2017-11-05T15:34:10.393Z,81.20
2017-11-05T15:36:37.877Z,80.00
2017-11-05T15:39:05.335Z,83.00
2017-11-05T15:41:32.789Z,80.10
2017-11-05T15:44:00.254Z,82.50
2017-11-05T15:46:27.722Z,80.40
2017-11-05T15:48:55.150Z,77.60
2017-11-05T15:51:22.609Z,81.10
2017-11-05T15:53:50.809Z,81.00
2017-11-05T15:56:18.248Z,81.10
2017-11-05T15:58:45.731Z,80.20
2017-11-05T16:01:13.154Z,80.20
2017-11-05T16:03:40.613Z,82.00
2017-11-05T16:06:08.091Z,79.90
2017-11-05T16:08:35.546Z,82.10
2017-11-05T16:11:03.004Z,81.20
2017-11-05T16:13:30.466Z,84.20
2017-11-05T16:15:57.919Z,84.00
2017-11-05T16:18:25.388Z,82.90
2017-11-05T16:20:53.581Z,84.80
2017-11-05T16:23:21.018Z,84.10
2017-11-05T16:25:48.462Z,86.10
2017-11-05T16:28:15.930Z,83.20
2017-11-05T16:30:43.402Z,85.30
2017-11-05T16:33:10.837Z,84.60
2017-11-05T16:35:38.308Z,87.20
2017-11-05T16:38:05.750Z,87.10
2017-11-05T16:40:33.225Z,84.10
2017-11-05T16:43:00.690Z,85.60
2017-11-05T16:45:28.933Z,84.90
2017-11-05T16:47:56.410Z,84.90
2017-11-05T16:50:24.276Z,85.30
2017-11-05T16:52:51.757Z,84.50
2017-11-05T16:55:19.191Z,85.10
2017-11-05T16:57:46.649Z,83.40
2017-11-05T17:00:14.114Z,82.60
2017-11-05T17:02:41.586Z,83.70
2017-11-05T17:05:09.818Z,87.10
2017-11-05T17:07:37.276Z,86.90
2017-11-05T17:10:04.735Z,84.20
2017-11-05T17:12:32.245Z,84.00
2017-11-05T17:15:00.426Z,84.30
2017-11-05T17:17:27.888Z,84.30
2017-11-05T17:19:55.342Z,84.80
2017-11-05T17:22:22.780Z,83.70
2017-11-05T17:24:51.018Z,85.10
2017-11-05T17:27:18.482Z,85.10
2017-11-05T17:29:45.941Z,86.70
2017-11-05T17:32:13.414Z,85.40
2017-11-05T17:34:41.631Z,86.10
2017-11-05T17:37:09.403Z,85.50
2017-11-05T17:39:36.842Z,83.40
2017-11-05T17:42:04.288Z,83.70
2017-11-05T17:44:32.477Z,84.20
2017-11-05T17:46:59.929Z,84.10
2017-11-05T17:49:27.390Z,84.30
2017-11-05T17:51:54.846Z,83.30
2017-11-05T17:54:22.294Z,85.20
2017-11-05T17:56:50.496Z,85.80
2017-11-05T17:59:17.934Z,85.60
2017-11-05T18:01:45.400Z,86.70
2017-11-05T18:04:13.570Z,85.70
2017-11-05T18:06:41.025Z,86.00
2017-11-05T18:09:08.518Z,85.60
2017-11-05T18:11:35.984Z,86.90
2017-11-05T18:14:03.476Z,86.40
2017-11-05T18:16:30.889Z,86.90
2017-11-05T18:18:58.333Z,86.50
2017-11-05T18:21:25.794Z,88.00
2017-11-05T18:23:53.268Z,87.80
2017-11-05T18:26:20.714Z,87.60
2017-11-05T18:28:48.168Z,87.00
2017-11-05T18:31:15.613Z,87.50
2017-11-05T18:33:43.070Z,88.50
2017-11-05T18:36:10.722Z,87.40
2017-11-05T18:38:38.238Z,87.80
2017-11-05T18:41:05.691Z,87.40
2017-11-05T18:43:33.151Z,87.50
2017-11-05T18:46:00.585Z,88.20
2017-11-05T18:48:28.064Z,87.90
2017-11-05T18:50:55.504Z,88.10
2017-11-05T18:53:22.981Z,87.90
2017-11-05T18:55:50.440Z,88.10
2017-11-05T18:58:17.906Z,88.20
2017-11-05T19:00:45.344Z,88.70
2017-11-05T19:03:12.826Z,89.10
2017-11-05T19:05:40.356Z,90.10
2017-11-05T19:08:07.813Z,90.20
2017-11-05T19:10:35.282Z,90.60
2017-11-05T19:13:02.765Z,90.80
2017-11-05T19:15:30.193Z,90.50
2017-11-05T19:17:57.661Z,90.50
2017-11-05T19:20:25.110Z,90.70
2017-11-05T19:22:52.593Z,90.80
2017-11-05T19:25:20.036Z,91.30
2017-11-05T19:27:47.501Z,91.40
2017-11-05T19:30:14.945Z,91.10
2017-11-05T19:32:42.405Z,91.10
2017-11-05T19:35:09.854Z,91.00
2017-11-05T19:37:37.308Z,91.50
2017-11-05T19:40:04.766Z,91.20
2017-11-05T19:42:32.225Z,91.20
2017-11-05T19:44:59.685Z,91.10
2017-11-05T19:47:42.915Z,90.90
2017-11-05T19:50:10.352Z,90.90
2017-11-05T19:52:37.787Z,91.20
2017-11-05T19:55:05.229Z,91.40
2017-11-05T19:57:33.408Z,91.70
2017-11-05T20:00:01.609Z,91.40
2017-11-05T20:02:29.041Z,91.40
2017-11-05T20:04:57.244Z,91.00
2017-11-05T20:07:24.677Z,91.00
2017-11-05T20:09:52.904Z,91.00
2017-11-05T20:12:20.372Z,90.90
2017-11-05T20:14:47.830Z,91.10
2017-11-05T20:17:15.275Z,91.20
2017-11-05T20:19:42.746Z,91.50
2017-11-05T20:22:10.207Z,91.10
2017-11-05T20:24:37.672Z,90.90
2017-11-05T20:27:05.120Z,91.30
2017-11-05T20:29:32.580Z,91.00
2017-11-05T20:32:00.040Z,90.80
2017-11-05T20:34:27.522Z,90.70
2017-11-05T20:36:55.743Z,91.10
2017-11-05T20:39:23.165Z,91.10
2017-11-05T20:41:50.633Z,91.10
2017-11-05T20:44:18.106Z,91.00
2017-11-05T20:46:45.565Z,90.90
2017-11-05T20:49:13.022Z,90.60
2017-11-05T20:51:40.484Z,90.30
2017-11-05T20:54:07.943Z,90.30
2017-11-05T20:56:35.370Z,90.50
2017-11-05T20:59:02.851Z,90.40
2017-11-05T21:01:30.303Z,90.60
2017-11-05T21:03:57.763Z,90.90
2017-11-05T21:06:25.215Z,91.10
2017-11-05T21:08:52.679Z,91.50
2017-11-05T21:11:20.157Z,91.30
2017-11-05T21:13:47.677Z,91.10
2017-11-05T21:16:15.893Z,90.80
2017-11-05T21:18:43.326Z,91.00
2017-11-05T21:21:10.808Z,91.30
2017-11-05T21:23:38.280Z,91.40
2017-11-05T21:26:05.715Z,91.60
2017-11-05T21:28:33.982Z,91.50
2017-11-05T21:31:01.440Z,91.50
2017-11-05T21:33:28.897Z,91.50
2017-11-05T21:35:56.361Z,92.00
2017-11-05T21:38:25.487Z,91.60
2017-11-05T21:40:52.933Z,91.60
2017-11-05T21:43:20.715Z,91.70
2017-11-05T21:45:49.065Z,91.50
2017-11-05T21:48:16.536Z,91.50
2017-11-05T21:50:44.805Z,91.30
2017-11-05T21:53:13.163Z,91.30
2017-11-05T21:55:40.587Z,91.40
2017-11-05T21:58:08.866Z,91.50
2017-11-05T22:00:37.075Z,91.50
2017-11-05T22:03:04.600Z,91.50
2017-11-05T22:05:32.108Z,92.30
2017-11-05T22:07:59.661Z,91.80
2017-11-05T22:10:27.163Z,91.90
2017-11-05T22:12:55.131Z,91.60
2017-11-05T22:15:22.573Z,91.70
2017-11-05T22:17:50.029Z,91.60
2017-11-05T22:20:17.491Z,91.50
2017-11-05T22:22:44.950Z,91.90
2017-11-05T22:25:12.411Z,91.80
2017-11-05T22:27:39.842Z,91.70
2017-11-05T22:30:07.264Z,91.60
2017-11-05T22:32:34.702Z,91.50
2017-11-05T22:35:02.930Z,92.40
2017-11-05T22:37:30.353Z,92.30
2017-11-05T22:39:57.782Z,92.90
2017-11-05T22:42:25.234Z,91.90
2017-11-05T22:44:52.700Z,91.60
2017-11-05T22:47:20.165Z,91.60
2017-11-05T22:49:47.605Z,91.60
2017-11-05T22:52:15.066Z,91.90
2017-11-05T22:54:42.523Z,92.90
2017-11-05T22:57:10.031Z,92.20
2017-11-05T22:59:37.475Z,91.90
2017-11-05T23:02:04.930Z,93.00
2017-11-05T23:04:33.119Z,93.30
2017-11-05T23:07:00.570Z,93.30
2017-11-05T23:09:28.029Z,92.90
2017-11-05T23:11:56.269Z,92.90
2017-11-05T23:14:23.711Z,92.90
2017-11-05T23:16:52.652Z,93.20
2017-11-05T23:19:20.098Z,93.20
2017-11-05T23:21:47.549Z,92.90
2017-11-05T23:24:15.761Z,92.70
2017-11-05T23:26:43.213Z,92.70
2017-11-05T23:29:10.637Z,93.00
2017-11-05T23:31:38.851Z,92.90
2017-11-05T23:34:06.295Z,92.90
2017-11-05T23:36:34.534Z,91.70
2017-11-05T23:39:01.965Z,91.70
2017-11-05T23:41:29.451Z,92.60
2017-11-05T23:43:57.682Z,93.00
2017-11-05T23:46:25.188Z,92.80
2017-11-05T23:48:53.402Z,92.50
2017-11-05T23:51:20.865Z,92.70
2017-11-05T23:53:48.317Z,92.60
2017-11-05T23:56:15.770Z,93.20
2017-11-05T23:58:43.235Z,93.00
